createdAt,value
2023-05-01T00:01:14.001Z,10.00
2023-05-01T00:03:17.958Z,10.00
2023-05-01T00:05:19.747Z,9.90
2023-05-01T00:07:21.599Z,9.90
2023-05-01T00:09:23.256Z,9.90
2023-05-01T00:11:24.925Z,9.90
2023-05-01T00:13:26.778Z,9.90
2023-05-01T00:15:28.573Z,9.90
2023-05-01T00:17:31.027Z,9.90
2023-05-01T00:19:32.818Z,9.90
2023-05-01T00:21:34.462Z,9.90
2023-05-01T00:23:36.223Z,9.90
2023-05-01T00:25:38.901Z,9.90
2023-05-01T00:27:40.553Z,9.90
2023-05-01T00:29:42.478Z,9.90
2023-05-01T00:31:45.738Z,9.90
2023-05-01T00:33:47.484Z,9.90
2023-05-01T00:35:49.181Z,9.90
2023-05-01T00:37:51.066Z,9.90
2023-05-01T00:39:52.784Z,10.00
2023-05-01T00:41:55.665Z,10.00
2023-05-01T00:43:57.862Z,10.00
2023-05-01T00:45:59.744Z,10.00
2023-05-01T00:48:02.506Z,10.00
2023-05-01T00:50:05.788Z,10.00
2023-05-01T00:52:09.792Z,10.00
2023-05-01T00:54:11.527Z,10.00
2023-05-01T00:56:14.053Z,9.90
2023-05-01T00:58:17.657Z,9.90
2023-05-01T01:00:22.314Z,9.90
2023-05-01T01:02:25.151Z,9.90
2023-05-01T01:04:31.420Z,9.90
2023-05-01T01:06:58.728Z,9.80
2023-05-01T01:09:09.604Z,9.90
2023-05-01T01:11:31.951Z,9.90
2023-05-01T01:13:40.299Z,9.90
2023-05-01T01:15:57.039Z,9.90
2023-05-01T01:18:24.384Z,9.90
2023-05-01T01:20:37.923Z,9.90
2023-05-01T01:22:43.964Z,9.90
2023-05-01T01:25:25.981Z,9.90
2023-05-01T01:27:58.257Z,9.80
2023-05-01T01:30:06.801Z,9.80
2023-05-01T01:32:26.877Z,9.80
2023-05-01T01:34:35.347Z,9.80
2023-05-01T01:37:15.898Z,9.80
2023-05-01T01:39:40.503Z,9.80
2023-05-01T01:41:47.516Z,9.80
2023-05-01T01:44:04.153Z,9.70
2023-05-01T01:46:08.235Z,9.80
2023-05-01T01:48:14.781Z,9.80
2023-05-01T01:50:18.549Z,9.80
2023-05-01T01:52:22.046Z,9.80
2023-05-01T01:54:40.882Z,10.20
2023-05-01T01:56:46.127Z,9.80
2023-05-01T01:58:49.575Z,9.80
2023-05-01T02:00:52.516Z,9.70
2023-05-01T02:02:56.074Z,9.70
2023-05-01T02:04:59.466Z,9.60
2023-05-01T02:07:02.343Z,9.60
2023-05-01T02:09:06.585Z,9.60
2023-05-01T02:11:08.855Z,9.60
2023-05-01T02:13:12.203Z,9.60
2023-05-01T02:15:16.506Z,9.60
2023-05-01T02:17:21.012Z,9.50
2023-05-01T02:19:23.667Z,9.50
2023-05-01T02:21:28.054Z,9.50
2023-05-01T02:23:31.998Z,9.50
2023-05-01T02:25:38.128Z,9.50
2023-05-01T02:27:47.091Z,9.50
2023-05-01T02:29:48.981Z,9.50
2023-05-01T02:31:50.726Z,9.50
2023-05-01T02:33:52.978Z,9.50
2023-05-01T02:35:54.866Z,9.50
2023-05-01T02:37:57.309Z,9.40
2023-05-01T02:39:59.525Z,9.40
2023-05-01T02:42:05.285Z,9.40
2023-05-01T02:44:09.850Z,9.40
2023-05-01T02:46:13.404Z,9.50
2023-05-01T02:48:18.894Z,9.50
2023-05-01T02:50:22.243Z,9.50
2023-05-01T02:52:24.297Z,9.50
2023-05-01T02:54:26.054Z,9.50
2023-05-01T02:56:30.640Z,9.50
2023-05-01T02:58:34.007Z,9.50
2023-05-01T03:00:35.694Z,9.40
2023-05-01T03:02:38.466Z,9.40
2023-05-01T03:04:40.722Z,9.40
2023-05-01T03:06:44.333Z,9.40
2023-05-01T03:08:47.620Z,9.30
2023-05-01T03:10:49.312Z,9.30
2023-05-01T03:12:50.988Z,9.30
2023-05-01T03:14:52.700Z,9.30
2023-05-01T03:16:55.229Z,9.40
2023-05-01T03:18:56.938Z,9.40
2023-05-01T03:20:58.620Z,9.40
2023-05-01T03:23:00.333Z,9.40
2023-05-01T03:25:02.626Z,9.40
2023-05-01T03:27:04.708Z,9.40
2023-05-01T03:29:06.601Z,9.40
2023-05-01T03:31:08.279Z,9.40
2023-05-01T03:33:10.079Z,9.40
2023-05-01T03:35:12.389Z,9.40
2023-05-01T03:37:15.091Z,9.40
2023-05-01T03:39:17.598Z,9.40
2023-05-01T03:41:19.369Z,9.40
2023-05-01T03:43:21.107Z,9.40
2023-05-01T03:45:22.960Z,9.40
2023-05-01T03:47:24.666Z,9.40
2023-05-01T03:49:26.475Z,9.40
2023-05-01T03:51:28.320Z,9.30
2023-05-01T03:53:30.300Z,9.30
2023-05-01T03:55:32.157Z,9.30
2023-05-01T03:57:34.048Z,9.30
2023-05-01T03:59:35.852Z,9.30
2023-05-01T04:01:37.690Z,9.30
2023-05-01T04:03:39.751Z,9.30
2023-05-01T04:05:41.627Z,9.20
2023-05-01T04:07:43.560Z,9.20
2023-05-01T04:09:45.197Z,9.20
2023-05-01T04:11:47.132Z,9.20
2023-05-01T04:13:48.872Z,9.20
2023-05-01T04:15:50.569Z,9.20
2023-05-01T04:17:52.612Z,9.20
2023-05-01T04:19:55.325Z,9.20
2023-05-01T04:21:57.485Z,9.20
2023-05-01T04:23:59.121Z,9.20
2023-05-01T04:26:00.909Z,9.20
2023-05-01T04:28:02.771Z,9.10
2023-05-01T04:30:04.842Z,9.10
2023-05-01T04:32:06.666Z,9.10
2023-05-01T04:34:09.530Z,9.10
2023-05-01T04:36:11.477Z,9.10
2023-05-01T04:38:13.212Z,9.10
2023-05-01T04:40:15.165Z,9.00
2023-05-01T04:42:16.857Z,9.10
2023-05-01T04:44:18.652Z,9.10
2023-05-01T04:46:20.373Z,9.10
2023-05-01T04:48:22.170Z,9.10
2023-05-01T04:50:24.160Z,9.10
2023-05-01T04:52:25.873Z,9.10
2023-05-01T04:54:27.996Z,9.10
2023-05-01T04:56:29.803Z,9.10
2023-05-01T04:58:31.476Z,9.10
2023-05-01T05:00:33.832Z,9.10
2023-05-01T05:02:35.605Z,9.20
2023-05-01T05:04:37.797Z,9.20
2023-05-01T05:06:39.800Z,9.20
2023-05-01T05:08:41.470Z,9.20
2023-05-01T05:10:43.174Z,9.30
2023-05-01T05:12:44.879Z,9.30
2023-05-01T05:14:48.066Z,9.30
2023-05-01T05:16:50.107Z,9.30
2023-05-01T05:18:51.949Z,9.40
2023-05-01T05:20:53.659Z,9.40
2023-05-01T05:22:55.700Z,9.40
2023-05-01T05:25:04.004Z,9.40
2023-05-01T05:27:07.122Z,9.40
2023-05-01T05:29:08.822Z,9.40
2023-05-01T05:31:10.663Z,9.40
2023-05-01T05:33:13.353Z,9.50
2023-05-01T05:35:15.160Z,9.50
2023-05-01T05:37:16.855Z,9.50
2023-05-01T05:39:18.470Z,9.50
2023-05-01T05:41:20.273Z,9.60
2023-05-01T05:43:21.997Z,9.60
2023-05-01T05:45:23.799Z,9.60
2023-05-01T05:47:25.701Z,9.60
2023-05-01T05:49:27.380Z,9.60
2023-05-01T05:51:29.071Z,9.60
2023-05-01T05:53:31.545Z,9.60
2023-05-01T05:55:33.241Z,9.60
2023-05-01T05:57:37.581Z,9.60
2023-05-01T05:59:39.296Z,9.60
2023-05-01T06:01:42.609Z,9.60
2023-05-01T06:03:44.357Z,9.60
2023-05-01T06:05:46.285Z,9.60
2023-05-01T06:07:48.046Z,9.60
2023-05-01T06:09:49.735Z,9.60
2023-05-01T06:11:51.748Z,9.60
2023-05-01T06:13:53.514Z,9.70
2023-05-01T06:15:55.561Z,9.70
2023-05-01T06:17:57.435Z,9.70
2023-05-01T06:19:59.214Z,9.80
2023-05-01T06:22:01.147Z,9.70
2023-05-01T06:24:02.889Z,9.70
2023-05-01T06:26:04.743Z,9.70
2023-05-01T06:28:06.544Z,9.70
2023-05-01T06:30:09.781Z,9.70
2023-05-01T06:32:11.510Z,9.70
2023-05-01T06:34:13.226Z,9.70
2023-05-01T06:36:14.894Z,9.80
2023-05-01T06:38:16.568Z,9.80
2023-05-01T06:40:18.276Z,9.80
2023-05-01T06:42:21.563Z,9.80
2023-05-01T06:44:23.622Z,9.70
2023-05-01T06:46:25.375Z,9.80
2023-05-01T06:48:27.058Z,9.80
2023-05-01T06:50:29.009Z,9.70
2023-05-01T06:52:31.006Z,9.70
2023-05-01T06:54:32.643Z,9.70
2023-05-01T06:56:34.305Z,9.70
2023-05-01T06:58:35.983Z,9.70
2023-05-01T07:00:38.104Z,9.80
2023-05-01T07:02:40.883Z,9.90
2023-05-01T07:04:44.416Z,10.00
2023-05-01T07:06:46.297Z,10.10
2023-05-01T07:08:49.017Z,10.10
2023-05-01T07:10:50.879Z,10.20
2023-05-01T07:12:52.518Z,10.30
2023-05-01T07:14:54.148Z,10.30
2023-05-01T07:16:55.816Z,10.30
2023-05-01T07:18:57.582Z,10.20
2023-05-01T07:20:59.213Z,10.10
2023-05-01T07:23:02.160Z,10.00
2023-05-01T07:25:04.013Z,9.90
2023-05-01T07:27:05.646Z,10.00
2023-05-01T07:29:07.329Z,9.90
2023-05-01T07:31:11.711Z,9.80
2023-05-01T07:33:13.438Z,9.60
2023-05-01T07:35:15.352Z,9.50
2023-05-01T07:37:17.050Z,9.50
2023-05-01T07:39:18.752Z,9.40
2023-05-01T07:41:21.728Z,9.30
2023-05-01T07:43:23.695Z,9.30
2023-05-01T07:45:25.321Z,9.30
2023-05-01T07:47:27.706Z,9.20
2023-05-01T07:49:29.966Z,9.20
2023-05-01T07:51:32.421Z,9.20
2023-05-01T07:53:34.511Z,9.20
2023-05-01T07:55:36.160Z,9.30
2023-05-01T07:57:38.651Z,9.30
2023-05-01T07:59:40.514Z,9.30
2023-05-01T08:01:42.444Z,9.40
2023-05-01T08:03:44.358Z,9.50
2023-05-01T08:05:46.166Z,9.60
2023-05-01T08:07:47.824Z,9.60
2023-05-01T08:09:49.663Z,9.90
2023-05-01T08:11:51.395Z,10.10
2023-05-01T08:13:53.146Z,10.40
2023-05-01T08:15:55.087Z,10.40
2023-05-01T08:17:57.023Z,10.60
2023-05-01T08:20:00.516Z,10.80
2023-05-01T08:22:02.190Z,11.00
2023-05-01T08:24:04.299Z,11.10
2023-05-01T08:26:06.040Z,11.20
2023-05-01T08:28:07.784Z,11.20
2023-05-01T08:30:09.724Z,11.00
2023-05-01T08:32:11.723Z,11.00
2023-05-01T08:34:13.394Z,11.30
2023-05-01T08:36:15.178Z,11.50
2023-05-01T08:38:17.293Z,11.70
2023-05-01T08:40:19.118Z,11.80
2023-05-01T08:42:21.365Z,12.30
2023-05-01T08:44:28.833Z,12.70
2023-05-01T08:46:57.351Z,13.00
2023-05-01T08:49:00.437Z,13.10
2023-05-01T08:51:04.014Z,13.00
2023-05-01T08:53:06.805Z,12.80
2023-05-01T08:55:14.142Z,12.80
2023-05-01T08:57:17.076Z,13.10
2023-05-01T08:59:20.486Z,13.10
2023-05-01T09:01:23.464Z,13.30
2023-05-01T09:03:26.992Z,12.90
2023-05-01T09:05:31.260Z,12.60
2023-05-01T09:07:33.009Z,12.80
2023-05-01T09:09:34.862Z,13.20
2023-05-01T09:11:36.759Z,13.70
2023-05-01T09:13:39.006Z,14.00
2023-05-01T09:15:40.978Z,14.00
2023-05-01T09:17:44.857Z,14.30
2023-05-01T09:19:47.167Z,14.60
2023-05-01T09:21:48.967Z,14.90
2023-05-01T09:23:51.266Z,14.80
2023-05-01T09:25:53.971Z,14.80
2023-05-01T09:27:56.918Z,15.10
2023-05-01T09:29:58.823Z,15.50
2023-05-01T09:32:12.879Z,15.80
2023-05-01T09:34:14.595Z,15.80
2023-05-01T09:36:18.315Z,15.90
2023-05-01T09:38:24.541Z,16.30
2023-05-01T09:40:29.123Z,16.50
2023-05-01T09:42:32.578Z,16.60
2023-05-01T09:44:43.087Z,16.70
2023-05-01T09:46:44.973Z,17.70
2023-05-01T09:48:56.261Z,17.80
2023-05-01T09:50:58.053Z,18.10
2023-05-01T09:53:04.749Z,17.80
2023-05-01T09:55:14.564Z,17.70
2023-05-01T09:57:16.301Z,18.20
2023-05-01T09:59:20.472Z,18.40
2023-05-01T10:01:39.825Z,18.30
2023-05-01T10:03:44.414Z,18.30
2023-05-01T10:05:46.869Z,18.30
2023-05-01T10:08:10.271Z,18.30
2023-05-01T10:10:21.384Z,18.30
2023-05-01T10:12:27.977Z,18.30
2023-05-01T10:14:30.492Z,18.60
2023-05-01T10:16:34.860Z,18.40
2023-05-01T10:18:37.399Z,18.90
2023-05-01T10:20:39.220Z,19.20
2023-05-01T10:22:41.329Z,19.60
2023-05-01T10:24:46.046Z,19.40
2023-05-01T10:26:49.163Z,20.10
2023-05-01T10:28:52.586Z,20.00
2023-05-01T10:30:56.449Z,19.80
2023-05-01T10:32:59.458Z,19.90
2023-05-01T10:35:05.488Z,19.80
2023-05-01T10:37:31.620Z,19.40
2023-05-01T10:39:34.830Z,19.40
2023-05-01T10:41:58.171Z,19.70
2023-05-01T10:44:25.547Z,19.50
2023-05-01T10:46:27.941Z,19.10
2023-05-01T10:48:42.258Z,18.70
2023-05-01T10:51:10.099Z,18.60
2023-05-01T10:53:11.961Z,18.50
2023-05-01T10:55:33.226Z,18.50
2023-05-01T10:57:44.742Z,18.50
2023-05-01T11:00:05.178Z,18.40
2023-05-01T11:02:22.014Z,18.20
2023-05-01T11:04:27.209Z,18.20
2023-05-01T11:06:29.294Z,18.50
2023-05-01T11:08:31.839Z,18.30
2023-05-01T11:10:33.689Z,18.00
2023-05-01T11:12:48.465Z,18.00
2023-05-01T11:15:05.850Z,18.00
2023-05-01T11:17:07.697Z,17.80
2023-05-01T11:19:10.937Z,17.40
2023-05-01T11:21:12.716Z,17.60
2023-05-01T11:23:17.919Z,17.60
2023-05-01T11:25:24.604Z,17.80
2023-05-01T11:27:27.276Z,17.80
2023-05-01T11:29:34.553Z,17.80
2023-05-01T11:31:36.866Z,17.90
2023-05-01T11:33:38.689Z,17.90
2023-05-01T11:35:41.065Z,17.50
2023-05-01T11:37:44.485Z,17.30
2023-05-01T11:39:50.381Z,16.80
2023-05-01T11:42:06.953Z,16.50
2023-05-01T11:44:11.237Z,16.50
2023-05-01T11:46:13.878Z,16.60
2023-05-01T11:48:18.645Z,16.60
2023-05-01T11:50:21.980Z,16.90
2023-05-01T11:52:23.698Z,17.00
2023-05-01T11:54:26.922Z,17.00
2023-05-01T11:56:29.483Z,17.10
2023-05-01T11:58:33.508Z,16.80
2023-05-01T12:00:38.124Z,16.70
2023-05-01T12:02:39.888Z,16.70
2023-05-01T12:04:41.874Z,16.90
2023-05-01T12:06:46.311Z,16.80
2023-05-01T12:08:51.232Z,17.10
2023-05-01T12:10:57.310Z,17.30
2023-05-01T12:12:59.573Z,17.80
2023-05-01T12:15:01.290Z,17.90
2023-05-01T12:17:04.167Z,18.10
2023-05-01T12:19:06.725Z,17.90
2023-05-01T12:21:15.861Z,17.60
2023-05-01T12:23:19.212Z,16.60
2023-05-01T12:25:21.084Z,16.50
2023-05-01T12:27:22.772Z,16.70
2023-05-01T12:29:24.492Z,17.10
2023-05-01T12:31:27.263Z,17.20
2023-05-01T12:33:29.064Z,17.70
2023-05-01T12:35:31.047Z,17.90
2023-05-01T12:37:32.873Z,18.10
2023-05-01T12:39:42.820Z,18.30
2023-05-01T12:41:49.054Z,18.30
2023-05-01T12:43:50.807Z,18.60
2023-05-01T12:45:53.651Z,18.60
2023-05-01T12:47:55.768Z,18.60
2023-05-01T12:50:04.352Z,18.70
2023-05-01T12:52:08.041Z,19.30
2023-05-01T12:54:09.708Z,19.70
2023-05-01T12:56:24.377Z,19.30
2023-05-01T12:58:36.920Z,19.30
2023-05-01T13:00:46.342Z,18.80
2023-05-01T13:02:48.790Z,18.50
2023-05-01T13:04:50.667Z,18.50
2023-05-01T13:06:56.084Z,19.10
2023-05-01T13:09:10.878Z,19.40
2023-05-01T13:11:14.621Z,19.70
2023-05-01T13:13:27.580Z,20.00
2023-05-01T13:15:29.411Z,20.00
2023-05-01T13:17:32.417Z,19.90
2023-05-01T13:19:34.691Z,19.60
2023-05-01T13:21:36.435Z,19.70
2023-05-01T13:23:38.906Z,19.20
2023-05-01T13:25:40.949Z,19.00
2023-05-01T13:27:47.364Z,19.30
2023-05-01T13:30:00.839Z,19.30
2023-05-01T13:32:05.824Z,19.40
2023-05-01T13:34:08.357Z,19.30
2023-05-01T13:36:22.114Z,19.20
2023-05-01T13:38:26.944Z,18.80
2023-05-01T13:40:28.554Z,19.00
2023-05-01T13:42:30.234Z,19.20
2023-05-01T13:44:32.257Z,19.10
2023-05-01T13:46:34.552Z,19.10
2023-05-01T13:48:36.348Z,19.10
2023-05-01T13:50:40.637Z,19.10
2023-05-01T13:52:44.260Z,19.50
2023-05-01T13:54:47.497Z,19.30
2023-05-01T13:56:53.084Z,19.00
2023-05-01T13:58:54.834Z,18.50
2023-05-01T14:00:56.970Z,18.00
2023-05-01T14:02:59.763Z,17.90
2023-05-01T14:05:02.093Z,17.40
2023-05-01T14:07:05.578Z,16.80
2023-05-01T14:09:07.307Z,16.50
2023-05-01T14:11:11.558Z,16.30
2023-05-01T14:13:17.703Z,16.10
2023-05-01T14:15:19.519Z,15.80
2023-05-01T14:17:31.776Z,15.60
2023-05-01T14:19:33.538Z,15.40
2023-05-01T14:21:44.172Z,15.10
2023-05-01T14:23:45.933Z,15.00
2023-05-01T14:25:49.494Z,15.10
2023-05-01T14:27:52.668Z,15.40
2023-05-01T14:29:55.178Z,15.50
2023-05-01T14:32:03.829Z,15.70
2023-05-01T14:34:09.002Z,16.00
2023-05-01T14:36:12.348Z,16.00
2023-05-01T14:38:15.010Z,16.10
2023-05-01T14:40:26.446Z,15.90
2023-05-01T14:42:28.127Z,15.80
2023-05-01T14:44:29.831Z,15.60
2023-05-01T14:46:36.189Z,15.50
2023-05-01T14:48:41.754Z,15.70
2023-05-01T14:50:43.521Z,15.80
2023-05-01T14:52:45.554Z,15.80
2023-05-01T14:54:47.356Z,16.00
2023-05-01T14:56:49.540Z,16.00
2023-05-01T14:58:51.281Z,16.00
2023-05-01T15:00:52.921Z,16.20
2023-05-01T15:02:55.540Z,16.40
2023-05-01T15:04:57.533Z,16.60
2023-05-01T15:06:59.346Z,16.30
2023-05-01T15:09:01.089Z,16.10
2023-05-01T15:11:02.694Z,15.80
2023-05-01T15:13:04.466Z,15.60
2023-05-01T15:15:07.315Z,15.60
2023-05-01T15:17:08.961Z,15.70
2023-05-01T15:19:10.635Z,15.70
2023-05-01T15:21:12.554Z,15.70
2023-05-01T15:23:15.110Z,15.70
2023-05-01T15:25:16.921Z,15.40
2023-05-01T15:27:18.567Z,15.20
2023-05-01T15:29:20.244Z,15.20
2023-05-01T15:31:22.760Z,15.10
2023-05-01T15:33:24.625Z,15.00
2023-05-01T15:35:26.723Z,15.00
2023-05-01T15:37:28.420Z,14.90
2023-05-01T15:39:30.122Z,14.90
2023-05-01T15:41:31.789Z,14.80
2023-05-01T15:43:33.533Z,14.80
2023-05-01T15:45:35.774Z,14.90
2023-05-01T15:47:38.035Z,14.90
2023-05-01T15:49:39.738Z,14.80
2023-05-01T15:51:41.541Z,14.90
2023-05-01T15:53:43.239Z,14.90
2023-05-01T15:55:45.126Z,14.80
2023-05-01T15:57:47.351Z,14.90
2023-05-01T15:59:53.806Z,15.00
2023-05-01T16:01:55.781Z,15.00
2023-05-01T16:03:57.704Z,15.10
2023-05-01T16:05:59.751Z,15.30
2023-05-01T16:08:01.687Z,15.50
2023-05-01T16:10:04.204Z,15.70
2023-05-01T16:12:13.142Z,15.80
2023-05-01T16:14:15.870Z,15.50
2023-05-01T16:16:22.580Z,15.70
2023-05-01T16:18:25.125Z,16.20
2023-05-01T16:20:34.093Z,16.50
2023-05-01T16:22:35.886Z,16.50
2023-05-01T16:24:38.702Z,16.30
2023-05-01T16:26:41.477Z,16.20
2023-05-01T16:28:43.350Z,16.10
2023-05-01T16:30:46.061Z,15.90
2023-05-01T16:32:47.891Z,15.70
2023-05-01T16:34:49.619Z,15.60
2023-05-01T16:36:51.316Z,15.50
2023-05-01T16:38:53.035Z,15.40
2023-05-01T16:40:54.783Z,15.10
2023-05-01T16:43:00.736Z,16.70
2023-05-01T16:45:02.416Z,14.70
2023-05-01T16:47:05.145Z,14.50
2023-05-01T16:49:07.047Z,14.50
2023-05-01T16:51:09.874Z,14.40
2023-05-01T16:53:11.646Z,14.30
2023-05-01T16:55:14.063Z,14.20
2023-05-01T16:57:17.126Z,14.00
2023-05-01T16:59:18.902Z,13.90
2023-05-01T17:01:20.573Z,13.70
2023-05-01T17:03:22.273Z,13.70
2023-05-01T17:05:24.031Z,13.50
2023-05-01T17:07:25.716Z,13.40
2023-05-01T17:09:27.925Z,13.40
2023-05-01T17:11:31.836Z,13.30
2023-05-01T17:13:33.814Z,13.20
2023-05-01T17:15:35.552Z,13.10
2023-05-01T17:17:37.223Z,12.90
2023-05-01T17:19:38.988Z,12.90
2023-05-01T17:21:41.261Z,12.80
2023-05-01T17:23:42.956Z,12.70
2023-05-01T17:25:44.771Z,12.70
2023-05-01T17:27:46.441Z,12.60
2023-05-01T17:29:48.068Z,12.50
2023-05-01T17:31:49.935Z,12.40
2023-05-01T17:33:51.635Z,12.30
2023-05-01T17:35:55.441Z,12.30
2023-05-01T17:37:57.522Z,12.30
2023-05-01T17:39:59.377Z,12.20
2023-05-01T17:42:02.382Z,12.10
2023-05-01T17:44:04.190Z,12.10
2023-05-01T17:46:06.360Z,12.10
2023-05-01T17:48:08.201Z,12.10
2023-05-01T17:50:11.597Z,12.20
2023-05-01T17:52:13.262Z,12.20
2023-05-01T17:54:16.666Z,12.20
2023-05-01T17:56:18.359Z,12.30
2023-05-01T17:58:20.781Z,12.30
2023-05-01T18:00:23.260Z,12.30
2023-05-01T18:02:29.126Z,12.40
2023-05-01T18:04:30.825Z,12.30
2023-05-01T18:06:33.318Z,12.40
2023-05-01T18:08:35.186Z,12.30
2023-05-01T18:10:36.884Z,12.30
2023-05-01T18:12:38.722Z,12.30
2023-05-01T18:14:40.514Z,12.20
2023-05-01T18:16:42.362Z,12.10
2023-05-01T18:18:44.354Z,12.00
2023-05-01T18:20:46.397Z,12.00
2023-05-01T18:22:48.332Z,11.90
2023-05-01T18:24:50.105Z,11.90
2023-05-01T18:26:51.841Z,11.90
2023-05-01T18:28:53.550Z,11.80
2023-05-01T18:30:55.230Z,11.70
2023-05-01T18:32:57.069Z,11.70
2023-05-01T18:34:58.795Z,11.70
2023-05-01T18:37:00.416Z,11.70
2023-05-01T18:39:02.310Z,11.70
2023-05-01T18:41:04.210Z,11.60
2023-05-01T18:43:05.995Z,11.60
2023-05-01T18:45:08.324Z,11.60
2023-05-01T18:47:10.049Z,11.50
2023-05-01T18:49:11.833Z,11.50
2023-05-01T18:51:14.713Z,11.40
2023-05-01T18:53:16.430Z,11.40
2023-05-01T18:55:18.350Z,11.40
2023-05-01T18:57:20.101Z,11.40
2023-05-01T18:59:22.367Z,11.30
2023-05-01T19:01:24.092Z,11.30
2023-05-01T19:03:25.862Z,11.20
2023-05-01T19:05:27.625Z,11.20
2023-05-01T19:07:29.470Z,11.20
2023-05-01T19:09:31.259Z,11.10
2023-05-01T19:11:33.058Z,11.10
2023-05-01T19:13:34.860Z,11.00
2023-05-01T19:15:36.687Z,11.00
2023-05-01T19:17:38.978Z,11.00
2023-05-01T19:19:40.638Z,11.00
2023-05-01T19:21:42.306Z,10.90
2023-05-01T19:23:45.057Z,10.80
2023-05-01T19:25:46.707Z,10.80
2023-05-01T19:27:49.122Z,10.80
2023-05-01T19:29:50.753Z,10.70
2023-05-01T19:31:52.480Z,10.70
2023-05-01T19:33:55.108Z,10.60
2023-05-01T19:35:56.927Z,10.60
2023-05-01T19:37:59.319Z,10.60
2023-05-01T19:40:01.322Z,10.60
2023-05-01T19:42:03.384Z,10.60
2023-05-01T19:44:05.311Z,10.60
2023-05-01T19:46:07.328Z,10.60
2023-05-01T19:48:09.154Z,10.50
2023-05-01T19:50:11.477Z,10.50
2023-05-01T19:52:13.353Z,10.40
2023-05-01T19:54:15.034Z,10.40
2023-05-01T19:56:16.755Z,10.30
2023-05-01T19:58:18.517Z,10.30
2023-05-01T20:00:20.300Z,10.20
2023-05-01T20:02:22.553Z,10.10
2023-05-01T20:04:24.577Z,10.10
2023-05-01T20:06:26.485Z,10.00
2023-05-01T20:08:28.235Z,9.90
2023-05-01T20:10:29.999Z,9.90
2023-05-01T20:12:32.676Z,9.80
2023-05-01T20:14:34.402Z,9.80
2023-05-01T20:16:36.277Z,9.80
2023-05-01T20:18:37.943Z,9.80
2023-05-01T20:20:39.673Z,9.80
2023-05-01T20:22:41.372Z,9.70
2023-05-01T20:24:43.179Z,9.70
2023-05-01T20:26:44.979Z,9.70
2023-05-01T20:28:48.284Z,9.70
2023-05-01T20:30:50.158Z,9.70
2023-05-01T20:32:52.676Z,9.70
2023-05-01T20:34:55.445Z,9.60
2023-05-01T20:36:57.378Z,9.70
2023-05-01T20:38:59.029Z,9.70
2023-05-01T20:41:00.815Z,9.70
2023-05-01T20:43:02.494Z,9.70
2023-05-01T20:45:05.133Z,9.70
2023-05-01T20:47:06.899Z,9.70
2023-05-01T20:49:10.145Z,9.60
2023-05-01T20:51:11.961Z,9.60
2023-05-01T20:53:13.692Z,9.50
2023-05-01T20:55:15.394Z,9.50
2023-05-01T20:57:17.206Z,9.40
2023-05-01T20:59:18.848Z,9.40
2023-05-01T21:01:20.677Z,9.30
2023-05-01T21:03:22.547Z,9.30
2023-05-01T21:05:24.887Z,9.20
2023-05-01T21:07:26.845Z,9.20
2023-05-01T21:09:28.580Z,9.20
2023-05-01T21:11:30.272Z,9.20
2023-05-01T21:13:32.278Z,9.10
2023-05-01T21:15:34.228Z,9.10
2023-05-01T21:17:36.930Z,9.10
2023-05-01T21:19:46.762Z,9.10
2023-05-01T21:21:48.521Z,9.10
2023-05-01T21:23:51.168Z,9.00
2023-05-01T21:25:54.290Z,9.00
2023-05-01T21:27:56.148Z,9.00
2023-05-01T21:30:00.361Z,9.00
2023-05-01T21:32:04.123Z,8.90
2023-05-01T21:34:07.188Z,8.90
2023-05-01T21:36:10.461Z,8.90
2023-05-01T21:38:12.613Z,8.90
2023-05-01T21:40:14.819Z,8.80
2023-05-01T21:42:16.800Z,8.80
2023-05-01T21:44:18.467Z,8.80
2023-05-01T21:46:20.361Z,8.80
2023-05-01T21:48:22.159Z,8.80
2023-05-01T21:50:23.863Z,8.70
2023-05-01T21:52:25.594Z,8.70
2023-05-01T21:54:30.624Z,8.70
2023-05-01T21:56:32.760Z,8.70
2023-05-01T21:58:34.730Z,8.60
2023-05-01T22:00:38.620Z,8.60
2023-05-01T22:02:42.463Z,8.60
2023-05-01T22:04:44.297Z,8.60
2023-05-01T22:06:46.084Z,8.60
2023-05-01T22:08:47.891Z,8.50
2023-05-01T22:10:49.520Z,8.50
2023-05-01T22:12:51.725Z,8.60
2023-05-01T22:14:53.626Z,8.60
2023-05-01T22:16:55.463Z,8.50
2023-05-01T22:18:57.344Z,8.50
2023-05-01T22:21:00.052Z,8.40
2023-05-01T22:23:01.713Z,8.40
2023-05-01T22:25:04.441Z,8.40
2023-05-01T22:27:06.098Z,8.40
2023-05-01T22:29:08.353Z,8.40
2023-05-01T22:31:10.156Z,8.30
2023-05-01T22:33:12.171Z,8.30
2023-05-01T22:35:13.910Z,8.30
2023-05-01T22:37:15.861Z,8.20
2023-05-01T22:39:17.862Z,8.20
2023-05-01T22:41:19.542Z,8.20
2023-05-01T22:43:21.708Z,8.20
2023-05-01T22:45:23.411Z,8.10
2023-05-01T22:47:25.195Z,8.10
2023-05-01T22:49:28.547Z,8.20
2023-05-01T22:51:30.797Z,8.20
2023-05-01T22:53:32.500Z,8.20
2023-05-01T22:55:34.182Z,8.20
2023-05-01T22:57:35.939Z,8.20
2023-05-01T22:59:39.534Z,8.20
2023-05-01T23:01:41.194Z,8.30
2023-05-01T23:03:43.077Z,8.30
2023-05-01T23:05:44.857Z,8.30
2023-05-01T23:07:46.503Z,8.30
2023-05-01T23:09:48.161Z,8.20
2023-05-01T23:11:49.849Z,8.20
2023-05-01T23:13:51.493Z,8.20
2023-05-01T23:15:53.989Z,8.30
2023-05-01T23:17:56.365Z,8.20
2023-05-01T23:19:58.796Z,8.20
2023-05-01T23:22:08.612Z,8.20
2023-05-01T23:24:13.034Z,8.20
2023-05-01T23:26:25.798Z,8.20
2023-05-01T23:28:28.516Z,8.20
2023-05-01T23:30:30.229Z,8.20
2023-05-01T23:32:32.223Z,8.20
2023-05-01T23:34:34.018Z,8.20
2023-05-01T23:36:35.721Z,8.20
2023-05-01T23:38:37.389Z,8.20
2023-05-01T23:40:39.669Z,8.20
2023-05-01T23:42:41.398Z,8.10
2023-05-01T23:44:43.280Z,8.10
2023-05-01T23:46:45.071Z,8.10
2023-05-01T23:48:46.778Z,8.10
2023-05-01T23:50:48.722Z,8.10
2023-05-01T23:52:50.418Z,8.10
2023-05-01T23:54:52.795Z,8.10
2023-05-01T23:56:54.488Z,8.00
2023-05-01T23:58:56.232Z,8.00
